createdAt,value
2022-08-23T00:00:14.620Z,19.75
2022-08-23T00:03:03.991Z,19.75
2022-08-23T00:05:34.153Z,19.74
2022-08-23T00:08:03.413Z,19.72
2022-08-23T00:10:32.347Z,19.70
2022-08-23T00:13:00.895Z,19.71
2022-08-23T00:15:29.427Z,19.69
2022-08-23T00:18:00.111Z,19.69
2022-08-23T00:20:28.775Z,19.67
2022-08-23T00:22:58.045Z,19.63
2022-08-23T00:25:26.504Z,19.58
2022-08-23T00:27:55.238Z,19.54
2022-08-23T00:30:24.034Z,19.50
2022-08-23T00:32:52.884Z,19.49
2022-08-23T00:35:27.591Z,19.49
2022-08-23T00:38:32.576Z,19.50
2022-08-23T00:40:51.217Z,19.49
2022-08-23T00:43:42.625Z,19.48
2022-08-23T00:46:40.361Z,19.50
2022-08-23T00:49:12.043Z,19.51
2022-08-23T00:51:53.107Z,19.52
2022-08-23T00:54:25.569Z,19.52
2022-08-23T00:56:55.715Z,19.52
2022-08-23T00:59:24.723Z,19.54
2022-08-23T01:01:53.370Z,19.55
2022-08-23T01:04:22.279Z,19.55
2022-08-23T01:06:56.400Z,19.57
2022-08-23T01:09:25.561Z,19.58
2022-08-23T01:12:00.241Z,19.58
2022-08-23T01:14:33.512Z,19.58
2022-08-23T01:17:07.936Z,19.58
2022-08-23T01:19:40.075Z,19.60
2022-08-23T01:22:17.164Z,19.60
2022-08-23T01:25:07.654Z,19.59
2022-08-23T01:27:39.003Z,19.58
2022-08-23T01:30:12.094Z,19.58
2022-08-23T01:32:45.850Z,19.58
2022-08-23T01:35:14.484Z,19.55
2022-08-23T01:37:43.071Z,19.55
2022-08-23T01:40:12.934Z,19.56
2022-08-23T01:42:43.110Z,19.55
2022-08-23T01:45:14.354Z,19.51
2022-08-23T01:47:43.745Z,19.48
2022-08-23T01:50:13.427Z,19.48
2022-08-23T01:52:46.976Z,19.49
2022-08-23T01:55:17.595Z,19.49
2022-08-23T01:57:50.799Z,19.52
2022-08-23T02:00:23.370Z,19.54
2022-08-23T02:02:52.615Z,19.52
2022-08-23T02:05:21.361Z,19.51
2022-08-23T02:07:50.031Z,19.53
2022-08-23T02:10:20.884Z,19.54
2022-08-23T02:12:50.759Z,19.53
2022-08-23T02:15:19.623Z,19.49
2022-08-23T02:17:49.160Z,19.47
2022-08-23T02:20:18.872Z,19.44
2022-08-23T02:22:47.518Z,19.43
2022-08-23T02:25:16.694Z,19.43
2022-08-23T02:27:45.140Z,19.42
2022-08-23T02:30:15.108Z,19.40
2022-08-23T02:32:44.592Z,19.39
2022-08-23T02:35:13.527Z,19.38
2022-08-23T02:37:42.107Z,19.38
2022-08-23T02:40:12.188Z,19.40
2022-08-23T02:42:41.495Z,19.43
2022-08-23T02:45:11.209Z,19.46
2022-08-23T02:47:45.408Z,19.48
2022-08-23T02:50:24.060Z,19.47
2022-08-23T02:52:53.857Z,19.48
2022-08-23T02:55:22.392Z,19.48
2022-08-23T02:57:51.079Z,19.49
2022-08-23T03:00:20.889Z,19.50
2022-08-23T03:02:51.914Z,19.49
2022-08-23T03:05:21.620Z,19.50
2022-08-23T03:07:50.101Z,19.50
2022-08-23T03:10:18.749Z,19.51
2022-08-23T03:12:52.135Z,19.48
2022-08-23T03:15:21.137Z,19.44
2022-08-23T03:17:49.775Z,19.45
2022-08-23T03:20:19.222Z,19.46
2022-08-23T03:22:54.562Z,19.47
2022-08-23T03:25:25.183Z,19.49
2022-08-23T03:28:04.367Z,19.50
2022-08-23T03:30:34.077Z,19.50
2022-08-23T03:33:03.816Z,19.52
2022-08-23T03:35:32.818Z,19.52
2022-08-23T03:38:02.958Z,19.52
2022-08-23T03:40:31.781Z,19.51
2022-08-23T03:43:01.095Z,19.50
2022-08-23T03:45:30.202Z,19.49
2022-08-23T03:47:59.613Z,19.48
2022-08-23T03:50:29.239Z,19.45
2022-08-23T03:52:58.030Z,19.41
2022-08-23T03:55:26.627Z,19.40
2022-08-23T03:57:55.190Z,19.39
2022-08-23T04:00:23.788Z,19.40
2022-08-23T04:02:53.932Z,19.40
2022-08-23T04:05:22.847Z,19.42
2022-08-23T04:08:08.938Z,19.42
2022-08-23T04:10:38.556Z,19.42
2022-08-23T04:13:08.487Z,19.41
2022-08-23T04:15:37.084Z,19.40
2022-08-23T04:18:07.077Z,19.39
2022-08-23T04:20:38.734Z,19.39
2022-08-23T04:23:07.574Z,19.38
2022-08-23T04:25:44.976Z,19.40
2022-08-23T04:28:13.531Z,19.44
2022-08-23T04:30:42.845Z,19.45
2022-08-23T04:33:18.205Z,19.45
2022-08-23T04:35:47.445Z,19.48
2022-08-23T04:38:24.411Z,19.50
2022-08-23T04:41:14.717Z,19.54
2022-08-23T04:43:43.948Z,19.55
2022-08-23T04:46:14.863Z,19.57
2022-08-23T04:48:44.497Z,19.58
2022-08-23T04:51:14.033Z,19.60
2022-08-23T04:53:42.841Z,19.63
2022-08-23T04:56:38.343Z,19.68
2022-08-23T04:59:07.645Z,19.74
2022-08-23T05:01:43.437Z,19.79
2022-08-23T05:04:11.884Z,19.87
2022-08-23T05:06:41.079Z,19.97
2022-08-23T05:09:09.826Z,20.06
2022-08-23T05:11:38.622Z,20.26
2022-08-23T05:14:07.183Z,20.47
2022-08-23T05:16:35.716Z,20.56
2022-08-23T05:19:09.594Z,20.74
2022-08-23T05:21:44.912Z,21.75
2022-08-23T05:24:14.088Z,23.04
2022-08-23T05:26:44.087Z,23.93
2022-08-23T05:29:12.741Z,24.60
2022-08-23T05:31:46.234Z,25.55
2022-08-23T05:34:16.875Z,26.28
2022-08-23T05:36:55.918Z,26.42
2022-08-23T05:39:37.080Z,25.96
2022-08-23T05:42:10.733Z,25.49
2022-08-23T05:44:39.194Z,25.08
2022-08-23T05:47:12.837Z,24.69
2022-08-23T05:49:51.566Z,24.33
2022-08-23T05:52:20.266Z,24.02
2022-08-23T05:54:48.731Z,23.77
2022-08-23T05:57:27.837Z,23.62
2022-08-23T05:59:56.279Z,23.49
2022-08-23T06:02:24.695Z,23.45
2022-08-23T06:04:57.247Z,23.38
2022-08-23T06:07:26.529Z,23.29
2022-08-23T06:09:55.111Z,23.18
2022-08-23T06:12:24.697Z,23.03
2022-08-23T06:14:53.191Z,22.93
2022-08-23T06:17:22.150Z,22.85
2022-08-23T06:19:50.795Z,22.78
2022-08-23T06:22:48.906Z,22.76
2022-08-23T06:25:17.654Z,22.79
2022-08-23T06:27:54.510Z,22.79
2022-08-23T06:30:25.094Z,22.75
2022-08-23T06:32:56.558Z,22.68
2022-08-23T06:35:48.196Z,22.63
2022-08-23T06:38:22.477Z,22.61
2022-08-23T06:41:11.963Z,22.60
2022-08-23T06:43:43.658Z,22.61
2022-08-23T06:46:23.775Z,22.63
2022-08-23T06:48:53.529Z,22.68
2022-08-23T06:51:26.581Z,22.70
2022-08-23T06:54:15.330Z,22.71
2022-08-23T06:57:06.744Z,22.75
2022-08-23T06:59:49.821Z,22.82
2022-08-23T07:02:37.455Z,22.89
2022-08-23T07:05:24.617Z,22.94
2022-08-23T07:08:06.928Z,22.97
2022-08-23T07:10:35.464Z,23.03
2022-08-23T07:13:03.975Z,23.11
2022-08-23T07:15:32.476Z,23.20
2022-08-23T07:18:01.267Z,23.24
2022-08-23T07:20:30.048Z,23.33
2022-08-23T07:22:58.811Z,23.36
2022-08-23T07:25:27.428Z,23.38
2022-08-23T07:28:01.334Z,23.48
2022-08-23T07:30:30.585Z,23.58
2022-08-23T07:32:59.798Z,23.66
2022-08-23T07:35:30.814Z,23.74
2022-08-23T07:38:01.243Z,23.83
2022-08-23T07:40:39.154Z,23.93
2022-08-23T07:43:10.350Z,24.02
2022-08-23T07:45:41.962Z,24.08
2022-08-23T07:48:11.924Z,24.12
2022-08-23T07:51:01.207Z,24.16
2022-08-23T07:53:38.062Z,24.26
2022-08-23T07:56:11.155Z,24.34
2022-08-23T07:59:03.361Z,24.55
2022-08-23T08:01:52.293Z,24.75
2022-08-23T08:04:20.876Z,25.00
2022-08-23T08:07:16.907Z,25.14
2022-08-23T08:09:43.836Z,25.21
2022-08-23T08:12:12.487Z,25.22
2022-08-23T08:14:43.453Z,25.22
2022-08-23T08:17:13.621Z,25.22
2022-08-23T08:20:10.279Z,25.22
2022-08-23T08:23:17.800Z,25.16
2022-08-23T08:26:11.844Z,25.19
2022-08-23T08:28:47.844Z,25.23
2022-08-23T08:31:18.393Z,25.31
2022-08-23T08:33:47.034Z,25.35
2022-08-23T08:36:31.890Z,25.42
2022-08-23T08:39:02.053Z,25.45
2022-08-23T08:42:05.032Z,25.50
2022-08-23T08:44:41.865Z,25.58
2022-08-23T08:47:17.561Z,25.61
2022-08-23T08:49:52.225Z,25.66
2022-08-23T08:52:25.860Z,25.71
2022-08-23T08:55:10.622Z,25.80
2022-08-23T08:57:43.148Z,25.91
2022-08-23T09:00:14.756Z,26.08
2022-08-23T09:02:46.121Z,26.20
2022-08-23T09:05:18.109Z,26.27
2022-08-23T09:08:00.790Z,26.48
2022-08-23T09:10:50.911Z,26.77
2022-08-23T09:13:46.172Z,26.81
2022-08-23T09:16:29.859Z,26.87
2022-08-23T09:19:01.732Z,26.95
2022-08-23T09:21:38.359Z,27.04
2022-08-23T09:24:07.671Z,27.15
2022-08-23T09:26:57.180Z,27.26
2022-08-23T09:29:28.860Z,27.37
2022-08-23T09:32:01.932Z,27.49
2022-08-23T09:34:43.720Z,27.67
2022-08-23T09:37:18.621Z,27.95
2022-08-23T09:39:50.198Z,28.13
2022-08-23T09:42:30.719Z,28.18
2022-08-23T09:45:01.457Z,28.20
2022-08-23T09:47:44.344Z,28.25
2022-08-23T09:50:26.219Z,28.30
2022-08-23T09:53:00.017Z,28.33
2022-08-23T09:55:33.249Z,28.33
2022-08-23T09:58:04.796Z,28.40
2022-08-23T10:00:36.125Z,28.48
2022-08-23T10:03:24.372Z,28.53
2022-08-23T10:05:57.799Z,28.49
2022-08-23T10:08:31.223Z,28.45
2022-08-23T10:11:13.001Z,28.42
2022-08-23T10:13:44.449Z,28.43
2022-08-23T10:16:23.717Z,28.41
2022-08-23T10:19:10.374Z,28.50
2022-08-23T10:21:46.810Z,28.75
2022-08-23T10:24:39.197Z,29.19
2022-08-23T10:27:43.469Z,29.78
2022-08-23T10:30:14.883Z,30.47
2022-08-23T10:32:54.869Z,30.87
2022-08-23T10:35:46.705Z,31.29
2022-08-23T10:38:42.574Z,31.48
2022-08-23T10:41:40.101Z,31.91
2022-08-23T10:44:23.666Z,32.33
2022-08-23T10:47:10.439Z,32.55
2022-08-23T10:49:41.708Z,32.75
2022-08-23T10:52:14.915Z,33.00
2022-08-23T10:54:59.293Z,33.14
2022-08-23T10:57:34.918Z,33.31
2022-08-23T11:00:08.384Z,33.41
2022-08-23T11:02:45.513Z,33.54
2022-08-23T11:05:29.457Z,33.69
2022-08-23T11:08:04.430Z,33.82
2022-08-23T11:10:56.470Z,33.98
2022-08-23T11:13:31.618Z,34.16
2022-08-23T11:16:06.326Z,34.25
2022-08-23T11:18:43.900Z,34.22
2022-08-23T11:21:44.752Z,34.29
2022-08-23T11:24:38.534Z,34.05
2022-08-23T11:27:07.696Z,33.98
2022-08-23T11:29:43.756Z,34.19
2022-08-23T11:32:40.654Z,34.40
2022-08-23T11:35:24.749Z,34.62
2022-08-23T11:37:57.272Z,34.89
2022-08-23T11:40:57.188Z,35.11
2022-08-23T11:43:34.903Z,35.33
2022-08-23T11:46:34.152Z,35.35
2022-08-23T11:49:55.223Z,35.15
2022-08-23T11:52:35.997Z,35.00
2022-08-23T11:55:24.305Z,35.05
2022-08-23T11:58:04.960Z,35.24
2022-08-23T12:00:54.929Z,35.39
2022-08-23T12:03:33.045Z,35.56
2022-08-23T12:06:13.868Z,35.52
2022-08-23T12:08:50.923Z,35.47
2022-08-23T12:11:21.037Z,35.21
2022-08-23T12:13:53.960Z,35.14
2022-08-23T12:16:36.263Z,35.09
2022-08-23T12:19:13.502Z,35.16
2022-08-23T12:21:47.001Z,35.23
2022-08-23T12:24:24.955Z,35.39
2022-08-23T12:27:06.893Z,35.39
2022-08-23T12:29:52.643Z,35.34
2022-08-23T12:32:30.741Z,35.31
2022-08-23T12:35:18.411Z,35.27
2022-08-23T12:37:56.591Z,35.23
2022-08-23T12:40:31.278Z,35.19
2022-08-23T12:43:07.827Z,35.15
2022-08-23T12:45:42.778Z,34.95
2022-08-23T12:48:14.407Z,34.86
2022-08-23T12:50:45.245Z,34.86
2022-08-23T12:53:15.847Z,34.93
2022-08-23T12:55:48.142Z,34.98
2022-08-23T12:58:31.662Z,35.04
2022-08-23T13:01:04.850Z,34.95
2022-08-23T13:03:38.765Z,34.93
2022-08-23T13:06:11.945Z,34.92
2022-08-23T13:08:45.367Z,34.88
2022-08-23T13:11:19.255Z,34.77
2022-08-23T13:13:48.078Z,34.64
2022-08-23T13:16:31.477Z,34.51
2022-08-23T13:19:16.642Z,34.47
2022-08-23T13:21:45.680Z,34.40
2022-08-23T13:24:38.461Z,34.32
2022-08-23T13:27:18.545Z,34.05
2022-08-23T13:29:52.980Z,33.93
2022-08-23T13:32:40.251Z,33.95
2022-08-23T13:35:30.939Z,33.86
2022-08-23T13:38:08.240Z,33.64
2022-08-23T13:40:44.344Z,33.52
2022-08-23T13:43:19.588Z,33.55
2022-08-23T13:45:51.013Z,33.45
2022-08-23T13:48:23.513Z,33.29
2022-08-23T13:50:52.910Z,33.10
2022-08-23T13:53:21.758Z,32.85
2022-08-23T13:55:54.282Z,32.50
2022-08-23T13:58:28.710Z,32.20
2022-08-23T14:00:58.900Z,31.95
2022-08-23T14:03:30.853Z,31.76
2022-08-23T14:05:59.634Z,31.56
2022-08-23T14:14:56.288Z,30.90
2022-08-23T14:17:25.339Z,30.73
2022-08-23T14:20:32.350Z,30.56
2022-08-23T14:22:43.152Z,30.33
2022-08-23T14:25:13.474Z,30.19
2022-08-23T14:27:44.315Z,30.09
2022-08-23T14:30:23.415Z,29.97
2022-08-23T14:32:52.033Z,29.81
2022-08-23T14:35:21.079Z,29.69
2022-08-23T14:38:05.413Z,29.61
2022-08-23T14:40:35.914Z,29.55
2022-08-23T14:43:05.269Z,29.52
2022-08-23T14:45:33.886Z,29.48
2022-08-23T14:48:04.118Z,29.42
2022-08-23T14:50:33.750Z,29.35
2022-08-23T14:53:05.489Z,29.27
2022-08-23T14:55:33.969Z,29.11
2022-08-23T14:58:03.486Z,28.87
2022-08-23T15:00:34.819Z,28.63
2022-08-23T15:03:09.410Z,28.40
2022-08-23T15:05:38.479Z,28.15
2022-08-23T15:08:07.055Z,27.83
2022-08-23T15:11:33.182Z,27.57
2022-08-23T15:13:30.040Z,27.29
2022-08-23T15:16:04.561Z,27.06
2022-08-23T15:18:35.121Z,26.73
2022-08-23T15:21:03.997Z,26.50
2022-08-23T15:23:32.703Z,26.32
2022-08-23T15:26:01.384Z,26.18
2022-08-23T15:28:30.927Z,26.11
2022-08-23T15:31:00.072Z,26.02
2022-08-23T15:33:30.980Z,25.90
2022-08-23T15:36:01.753Z,25.79
2022-08-23T15:38:31.277Z,25.68
2022-08-23T15:41:00.190Z,25.59
2022-08-23T15:43:34.804Z,25.50
2022-08-23T15:46:06.559Z,25.34
2022-08-23T15:48:40.762Z,25.18
2022-08-23T15:51:10.481Z,25.06
2022-08-23T15:53:41.256Z,24.95
2022-08-23T15:56:13.480Z,24.84
2022-08-23T15:58:42.264Z,24.75
2022-08-23T16:01:11.625Z,24.67
2022-08-23T16:03:42.751Z,24.62
2022-08-23T16:06:13.138Z,24.55
2022-08-23T16:08:45.922Z,24.47
2022-08-23T16:11:14.354Z,24.41
2022-08-23T16:13:44.868Z,24.37
2022-08-23T16:16:17.445Z,24.32
2022-08-23T16:18:46.158Z,24.27
2022-08-23T16:21:16.374Z,24.22
2022-08-23T16:23:45.148Z,24.17
2022-08-23T16:26:16.050Z,24.14
2022-08-23T16:28:46.394Z,24.12
2022-08-23T16:31:15.981Z,24.11
2022-08-23T16:33:47.269Z,24.09
2022-08-23T16:36:17.273Z,24.02
2022-08-23T16:38:47.505Z,23.98
2022-08-23T16:41:16.039Z,23.96
2022-08-23T16:43:44.542Z,23.91
2022-08-23T16:46:15.358Z,23.91
2022-08-23T16:48:44.950Z,23.88
2022-08-23T16:51:13.897Z,23.86
2022-08-23T16:53:42.438Z,23.86
2022-08-23T16:56:14.674Z,23.85
2022-08-23T16:58:45.100Z,23.82
2022-08-23T17:01:14.230Z,23.81
2022-08-23T17:03:43.330Z,23.79
2022-08-23T17:06:12.135Z,23.76
2022-08-23T17:08:40.644Z,23.70
2022-08-23T17:11:13.281Z,23.65
2022-08-23T17:13:42.408Z,23.60
2022-08-23T17:16:11.419Z,23.53
2022-08-23T17:18:40.070Z,23.46
2022-08-23T17:21:08.916Z,23.41
2022-08-23T17:23:39.293Z,23.36
2022-08-23T17:26:09.761Z,23.27
2022-08-23T17:28:38.258Z,23.20
2022-08-23T17:31:06.910Z,23.13
2022-08-23T17:33:35.451Z,23.06
2022-08-23T17:36:05.026Z,23.02
2022-08-23T17:38:34.917Z,22.99
2022-08-23T17:41:03.500Z,22.96
2022-08-23T17:43:32.154Z,22.93
2022-08-23T17:46:01.023Z,22.90
2022-08-23T17:48:29.530Z,22.85
2022-08-23T17:50:59.513Z,22.82
2022-08-23T17:53:28.338Z,22.79
2022-08-23T17:55:56.836Z,22.74
2022-08-23T17:58:26.056Z,22.71
2022-08-23T18:00:56.247Z,22.68
2022-08-23T18:03:24.822Z,22.67
2022-08-23T18:05:54.127Z,22.65
2022-08-23T18:08:22.741Z,22.64
2022-08-23T18:10:51.392Z,22.61
2022-08-23T18:13:20.202Z,22.57
2022-08-23T18:15:48.658Z,22.56
2022-08-23T18:18:17.243Z,22.52
2022-08-23T18:20:45.921Z,22.51
2022-08-23T18:23:15.094Z,22.50
2022-08-23T18:25:45.209Z,22.49
2022-08-23T18:28:14.820Z,22.48
2022-08-23T18:30:48.919Z,22.47
2022-08-23T18:33:18.855Z,22.45
2022-08-23T18:35:48.279Z,22.42
2022-08-23T18:38:17.711Z,22.40
2022-08-23T18:40:48.087Z,22.36
2022-08-23T18:43:19.217Z,22.34
2022-08-23T18:45:51.280Z,22.31
2022-08-23T18:48:21.758Z,22.27
2022-08-23T18:50:50.927Z,22.26
2022-08-23T18:53:20.318Z,22.23
2022-08-23T18:55:49.877Z,22.19
2022-08-23T18:58:19.597Z,22.17
2022-08-23T19:00:50.590Z,22.16
2022-08-23T19:03:23.789Z,22.14
2022-08-23T19:05:52.889Z,22.12
2022-08-23T19:08:21.496Z,22.10
2022-08-23T19:10:50.241Z,22.06
2022-08-23T19:13:19.333Z,22.04
2022-08-23T19:15:49.196Z,22.01
2022-08-23T19:18:18.019Z,21.99
2022-08-23T19:20:46.794Z,21.96
2022-08-23T19:23:15.292Z,21.92
2022-08-23T19:25:44.777Z,21.88
2022-08-23T19:28:14.540Z,21.84
2022-08-23T19:30:43.522Z,21.83
2022-08-23T19:33:12.102Z,21.81
2022-08-23T19:35:41.730Z,21.77
2022-08-23T19:38:10.891Z,21.72
2022-08-23T19:40:39.539Z,21.71
2022-08-23T19:43:09.349Z,21.68
2022-08-23T19:45:38.694Z,21.66
2022-08-23T19:48:07.371Z,21.64
2022-08-23T19:50:37.022Z,21.63
2022-08-23T19:53:05.516Z,21.62
2022-08-23T19:55:38.385Z,21.60
2022-08-23T19:58:06.858Z,21.58
2022-08-23T20:00:36.604Z,21.57
2022-08-23T20:03:05.207Z,21.54
2022-08-23T20:05:33.884Z,21.53
2022-08-23T20:08:03.209Z,21.51
2022-08-23T20:10:31.813Z,21.51
2022-08-23T20:13:00.920Z,21.50
2022-08-23T20:15:30.894Z,21.49
2022-08-23T20:18:00.132Z,21.47
2022-08-23T20:20:28.671Z,21.44
2022-08-23T20:23:15.792Z,21.42
2022-08-23T20:25:44.221Z,21.39
2022-08-23T20:28:12.826Z,21.36
2022-08-23T20:30:41.493Z,21.35
2022-08-23T20:33:09.971Z,21.31
2022-08-23T20:35:38.449Z,21.30
2022-08-23T20:38:07.055Z,21.26
2022-08-23T20:40:42.626Z,21.25
2022-08-23T20:43:11.855Z,21.25
2022-08-23T20:45:40.728Z,21.23
2022-08-23T20:48:12.209Z,21.20
2022-08-23T20:50:40.897Z,21.17
2022-08-23T20:53:12.400Z,21.13
2022-08-23T20:55:41.173Z,21.09
2022-08-23T20:58:09.733Z,21.07
2022-08-23T21:00:38.260Z,21.06
2022-08-23T21:03:06.756Z,21.04
2022-08-23T21:05:35.464Z,21.02
2022-08-23T21:08:04.346Z,21.01
2022-08-23T21:10:34.150Z,21.00
2022-08-23T21:13:05.107Z,21.00
2022-08-23T21:15:39.267Z,20.97
2022-08-23T21:18:07.840Z,20.95
2022-08-23T21:20:36.360Z,20.96
2022-08-23T21:23:04.963Z,20.96
2022-08-23T21:25:33.649Z,20.95
2022-08-23T21:28:04.353Z,20.94
2022-08-23T21:30:33.010Z,20.94
2022-08-23T21:33:01.836Z,20.92
2022-08-23T21:35:30.678Z,20.90
2022-08-23T21:37:59.738Z,20.87
2022-08-23T21:40:30.557Z,20.84
2022-08-23T21:43:01.570Z,20.82
2022-08-23T21:45:30.200Z,20.81
2022-08-23T21:48:01.371Z,20.77
2022-08-23T21:50:30.139Z,20.70
2022-08-23T21:52:59.130Z,20.64
2022-08-23T21:55:36.069Z,20.63
2022-08-23T21:58:05.816Z,20.61
2022-08-23T22:00:35.767Z,20.59
2022-08-23T22:03:04.912Z,20.58
2022-08-23T22:05:38.228Z,20.56
2022-08-23T22:08:06.797Z,20.53
2022-08-23T22:10:37.066Z,20.50
2022-08-23T22:13:07.013Z,20.44
2022-08-23T22:15:36.004Z,20.39
2022-08-23T22:18:05.416Z,20.35
2022-08-23T22:20:33.997Z,20.33
2022-08-23T22:23:02.590Z,20.32
2022-08-23T22:25:32.691Z,20.28
2022-08-23T22:28:03.503Z,20.21
2022-08-23T22:30:32.910Z,20.17
2022-08-23T22:33:01.684Z,20.13
2022-08-23T22:35:33.684Z,20.09
2022-08-23T22:38:17.814Z,20.05
2022-08-23T22:40:51.243Z,20.00
2022-08-23T22:43:20.486Z,19.95
2022-08-23T22:45:54.564Z,19.91
2022-08-23T22:48:23.658Z,19.87
2022-08-23T22:51:02.468Z,19.84
2022-08-23T22:53:30.904Z,19.80
2022-08-23T22:56:02.054Z,19.76
2022-08-23T22:58:30.872Z,19.76
2022-08-23T23:01:03.783Z,19.75
2022-08-23T23:03:41.896Z,19.74
2022-08-23T23:06:11.184Z,19.70
2022-08-23T23:08:39.836Z,19.67
2022-08-23T23:11:11.085Z,19.62
2022-08-23T23:13:40.885Z,19.59
2022-08-23T23:16:12.912Z,19.59
2022-08-23T23:19:08.348Z,19.58
2022-08-23T23:21:39.551Z,19.57
2022-08-23T23:24:09.506Z,19.54
2022-08-23T23:26:38.820Z,19.52
2022-08-23T23:29:08.725Z,19.50
2022-08-23T23:31:37.485Z,19.50
2022-08-23T23:34:06.193Z,19.50
2022-08-23T23:36:34.726Z,19.50
2022-08-23T23:39:04.644Z,19.46
2022-08-23T23:41:33.858Z,19.43
2022-08-23T23:44:03.715Z,19.41
2022-08-23T23:46:32.214Z,19.41
2022-08-23T23:49:01.087Z,19.39
2022-08-23T23:51:31.210Z,19.37
2022-08-23T23:54:01.307Z,19.34
2022-08-23T23:56:30.936Z,19.34
2022-08-23T23:59:00.497Z,19.33
